Aviation Digital Data Service (ADDS)

Output produced by METARs form (0327 UTC 28 July 2015)
found at http://www.aviationweather.gov/adds/metars/
 
KDFW 280302Z 2803/2906 17011KT P6SM FEW070 SCT300